Storia di METAR DNMN · Minna Airport

Di seguito sono riportati i METAR degli ultimi giorni. Seleziona un anno per sfogliare i METAR più vecchi, dall'anno 2007 in poi.

8 dicembre 2022

Tempo Codice Tempo metereologico Temp. Vista Base nuvolosa Vento METAR/SPECI
05:00
V
23 °C 10 km+ - 040° 040° 7 kt METAR DNMN 080400Z 04007KT CAVOK 23/10 Q1011

7 dicembre 2022

Tempo Codice Tempo metereologico Temp. Vista Base nuvolosa Vento METAR/SPECI
23:00
M
27 °C 7 km - 360° 360° 4 kt METAR DNMN 072200Z 36004KT 7000 NSC 27/13 Q1012
22:00
M
26 °C 7 km - 060° 060° 3 kt METAR DNMN 072100Z 06003KT 7000 NSC 26/14 Q1014
21:00
U
27 °C 0 m - 300° 300° 4 kt METAR DNMN 072000Z 30004KT 70000 NSC 27/13 Q1011
20:00
V
29 °C 8 km - 260° 260° 4 kt METAR DNMN 071900Z 26004KT 8000 NSC 29/14 Q1011
19:00
V
30 °C 10 km+ - 230° 230° 5 kt METAR DNMN 071800Z 23005KT CAVOK 30/13 Q1009
18:00
V
33 °C 10 km+ - 210° 210° 5 kt METAR DNMN 071700Z 21005KT CAVOK 33/14 Q1008
17:00
V
37 °C 10 km+ - 160° 160° 5 kt METAR DNMN 071600Z 16005KT CAVOK 37/10 Q1007
16:00
V
37 °C 10 km+ - 130° 130° 8 kt METAR DNMN 071500Z 13008KT CAVOK 37/10 Q1007
15:00
M
37 °C 5 km - 080° 080° 7 kt METAR DNMN 071400Z 08007KT 5000 HZ NSC 37/10 Q1007
14:00
I
37 °C 2 km - 150° 150° 5 kt METAR DNMN 071300Z 15005KT 2000 HZ NSC 37/10 Q1008
13:00
L
36 °C 1,2 km - 040° 040° 7 kt METAR DNMN 071200Z 04007KT 1200 HZ NSC 36/09 Q1009
12:00
L
34 °C 1,2 km - 070° 070° 12 kt METAR DNMN 071100Z 07012KT 1200 HZ NSC 34/07 Q1010
10:00
L
30 °C 1 km - 060° 060° 8 kt METAR DNMN 070900Z 06008KT 1000 HZ NSC 30/07 Q1011
09:00
L
27 °C 1 km - 030° 030° 4 kt METAR DNMN 070800Z 03004KT 1000 HZ NSC 27/07 Q1011
08:00
L
23 °C 1 km - 060° 060° 5 kt METAR DNMN 070700Z 06005KT 1000 HZ NSC 23/10 Q1011
07:00
L
22 °C 1,2 km - 060° 060° 4 kt METAR DNMN 070600Z 06004KT 1200 HZ NSC 22/10 Q1011
06:00
M
23 °C 5 km - 100° 100° 4 kt METAR DNMN 070500Z 10004KT 5000 HZ NSC 23/08 Q1010
04:00
M
24 °C 5 km - 290° 290° 5 kt METAR DNMN 070300Z 29005KT 5000 HZ NSC 24/05 Q1010

6 dicembre 2022

Tempo Codice Tempo metereologico Temp. Vista Base nuvolosa Vento METAR/SPECI
23:00
V
27 °C 10 km+ - 350° 350° 8 kt METAR DNMN 062200Z 35008KT CAVOK 27/11 Q1012
22:00
V
28 °C 10 km+ - 350° 350° 6 kt METAR DNMN 062100Z 35006KT CAVOK 28/11 Q1013
21:00
V
29 °C 10 km+ - 320° 320° 5 kt METAR DNMN 062000Z 32005KT CAVOK 29/13 Q1010
20:00
V
30 °C 10 km+ - 340° 340° 5 kt METAR DNMN 061900Z 34005KT CAVOK 30/13 Q1010
19:00
V
30 °C 10 km+ - 200° 200° 7 kt METAR DNMN 061800Z 20007KT CAVOK 30/13 Q1008
18:00
V
32 °C 10 km+ - 260° 260° 6 kt METAR DNMN 061700Z 26006KT CAVOK 32/12 Q1008
17:00
V
35 °C 10 km+ - 220° 220° 5 kt METAR DNMN 061600Z 22005KT CAVOK 35/09 Q1007
14:00
V
36 °C 10 km+ - 180° 180° 3 kt METAR DNMN 061300Z 18003KT CAVOK 36/08 Q1009
13:00
V
36 °C 10 km+ - 090° 090° 3 kt METAR DNMN 061200Z 09003KT CAVOK 36/08 Q1010
12:00
V
33 °C 10 km+ - 050° 050° 9 kt METAR DNMN 061100Z 05009KT CAVOK 33/08 Q1012
11:00
V
33 °C 10 km+ - 070° 070° 8 kt METAR DNMN 061000Z 07008KT CAVOK 33/05 Q1012
08:00
V
26 °C 10 km+ - 060° 060° 4 kt METAR DNMN 060700Z 06004KT CAVOK 26/04 Q1011
06:00
V
23 °C 10 km+ - 050° 050° 2 kt METAR DNMN 060500Z 05002KT CAVOK 23/06 Q1011
05:00
V
23 °C 10 km+ - 030° 030° 5 kt METAR DNMN 060400Z 03005KT CAVOK 23/05 Q1011
02:00
V
24 °C 10 km+ - 020° 020° 5 kt METAR DNMN 060100Z 02005KT CAVOK 24/05 Q1012
00:00
V
24 °C 10 km+ - 020° 020° 11 kt METAR DNMN 052300Z 02011KT CAVOK 24/06 Q1011

5 dicembre 2022

Tempo Codice Tempo metereologico Temp. Vista Base nuvolosa Vento METAR/SPECI
23:00
V
29 °C 10 km+ - 030° 030° 13 kt METAR DNMN 052200Z 03013KT CAVOK 29/05 Q1012
22:00
V
29 °C 10 km+ - 020° 020° 12 kt METAR DNMN 052100Z 02012KT CAVOK 29/07 Q1012
21:00
V
29 °C 10 km+ - 020° 020° 7 kt METAR DNMN 052000Z 02007KT CAVOK 29/07 Q1012
20:00
V
31 °C 10 km+ - 010° 010° 8 kt METAR DNMN 051900Z 01008KT CAVOK 31/08 Q1011
19:00
V
32 °C 10 km+ - 010° 010° 10 kt METAR DNMN 051800Z 01010KT CAVOK 32/08 Q1010
18:00
V
35 °C 10 km+ - 020° 020° 8 kt METAR DNMN 051700Z 02008KT CAVOK 35/08 Q1009
17:00
V
37 °C 10 km+ - 040° 040° 13 kt METAR DNMN 051600Z 04013KT CAVOK 37/07 Q1008
16:00
V
38 °C 10 km+ - 060° 060° 16 kt METAR DNMN 051500Z 06016KT CAVOK 38/06 Q1008
15:00
V
38 °C 10 km+ - 350° 350° 7 kt METAR DNMN 051400Z 35007KT CAVOK 38/13 Q1009
14:00
V
37 °C 10 km+ - 040° 040° 1 kt METAR DNMN 051300Z 04001KT CAVOK 37/13 Q1010
13:00
V
36 °C 10 km+ - 240° 240° 2 kt METAR DNMN 051200Z 24002KT CAVOK 36/12 Q1011
12:00
V
34 °C 10 km+ - 140° 140° 2 kt METAR DNMN 051100Z 14002KT CAVOK 34/14 Q1012
11:00
V
32 °C 10 km+ - 120° 120° 47 kt METAR DNMN 051000Z 120047KT CAVOK 32/16 Q1013

Noi e le terze parti seguiamo il tuo comportamento su internet con i cookie. Se continui, riteniamo che tu sia d'accordo con la nostra Politica sui cookie.